Impacts TAF Board INFO
FOR SITUATIONAL AWARENESS. NOT TO BE USED FOR FLIGHT PLANNING PURPOSES.
IDs:

KDTW - Detroit Metro/Wayne, MI, US

Issued at 2012 UTC 21 Nov 2017
Updated at 2111 UTC 21 Nov 2017
Potential Impact None Slight Moderate High
Time<<22/22Z 22/23Z 23/00Z 23/01Z 23/02Z 23/03Z 23/04Z 23/05Z 23/06Z 23/07Z 23/08Z 23/09Z 23/10Z
Type PRVL PRVL
VIS >6 >6
CIG -- --
Cover SCT SCT
FltCat VFR VFR
WX -- --
WDir 290 290
WSpd 6 6
WGst -- --

Raw TAF
KDTW 212012Z 2120/2224 24014G22KT P6SM SCT050 OVC120
  FM212100 28014G22KT P6SM SCT030 OVC050
  TEMPO 2121/2123 5SM -RASN SCT015 BKN025 OVC035
  FM220000 29012G18KT P6SM BKN040
  FM220400 30010KT P6SM SCT035
  FM221600 29006KT P6SM SCT035


METAR Board
Radar Display
Forecast Discussion

FOR SITUATIONAL AWARENESS. NOT TO BE USED FOR FLIGHT PLANNING PURPOSES.